Time;durP1;ratioP1;P1;durP2;ratioP2;P2;SDS_P1;SDS_P2;PMS_P1;PMS_P2;Temp;Humidity;BMP_temperature;BMP_pressure;BME280_temperature;BME280_humidity;BME280_pressure;Samples;Min_cycle;Max_cycle;Signal;HPM_P1;HPM_P2
2022/05/04 00:00:48;;;;;;;;;13.50;13.50;;;;;12.67;64.84;101053.44;5067920;28;45586;-79
2022/05/04 00:03:14;;;;;;;;;16.50;14.75;;;;;12.58;65.47;101050.06;5075794;27;45479;-77
2022/05/04 00:05:40;;;;;;;;;14.75;10.00;;;;;12.53;65.04;101051.94;5060266;28;45346;-78
2022/05/04 00:08:05;;;;;;;;;10.75;7.75;;;;;12.51;65.54;101053.75;5051336;28;47946;-78
2022/05/04 00:10:31;;;;;;;;;22.00;17.50;;;;;12.43;65.37;101042.44;5071143;28;45509;-78
2022/05/04 00:12:57;;;;;;;;;15.50;12.50;;;;;12.51;65.31;101048.47;5056255;28;45461;-78
2022/05/04 00:15:24;;;;;;;;;20.25;11.00;;;;;12.54;65.58;101043.09;5056155;28;45482;-78
2022/05/04 00:17:49;;;;;;;;;7.25;4.50;;;;;12.48;65.32;101037.94;5054295;28;45736;-77
2022/05/04 00:20:15;;;;;;;;;18.50;17.50;;;;;12.50;65.30;101043.19;5057489;28;45481;-78
2022/05/04 00:22:40;;;;;;;;;15.00;13.00;;;;;12.43;65.43;101039.78;5069125;28;45305;-79
2022/05/04 00:25:06;;;;;;;;;18.75;18.75;;;;;12.39;65.74;101038.97;5064247;28;45390;-79
2022/05/04 00:27:33;;;;;;;;;22.25;19.25;;;;;12.35;65.43;101026.69;5068950;28;46257;-77
2022/05/04 00:29:58;;;;;;;;;12.50;10.75;;;;;12.36;66.15;101016.94;5074367;28;45657;-79
2022/05/04 00:32:24;;;;;;;;;30.00;25.50;;;;;12.38;65.94;101025.75;5075541;27;45357;-78
2022/05/04 00:34:49;;;;;;;;;24.25;18.00;;;;;12.31;66.19;101019.69;5068413;27;45577;-78
2022/05/04 00:37:14;;;;;;;;;20.00;17.75;;;;;12.30;66.01;101025.03;5065195;28;45409;-79
2022/05/04 00:39:40;;;;;;;;;11.00;11.00;;;;;12.25;66.04;101018.06;5062648;28;45530;-78
2022/05/04 00:42:14;;;;;;;;;17.50;15.00;;;;;12.29;66.20;101023.28;5062036;27;45871;-78
2022/05/04 00:44:40;;;;;;;;;25.25;18.25;;;;;12.23;65.96;101014.53;5057216;27;45519;-78
2022/05/04 00:47:06;;;;;;;;;21.25;12.75;;;;;12.24;65.97;101021.59;5064471;28;45486;-78
2022/05/04 00:49:32;;;;;;;;;25.00;17.00;;;;;12.23;66.24;101017.19;5075310;27;45590;-78
2022/05/04 00:51:58;;;;;;;;;26.75;20.75;;;;;12.24;65.88;101020.72;5060958;27;45397;-78
2022/05/04 00:54:24;;;;;;;;;19.50;18.25;;;;;12.23;66.12;101022.50;5075834;27;45538;-77
2022/05/04 00:56:51;;;;;;;;;22.75;19.50;;;;;12.17;66.52;101022.63;5066420;28;46407;-79
2022/05/04 00:59:16;;;;;;;;;15.50;11.50;;;;;12.10;66.40;101018.38;5063214;27;45579;-78
2022/05/04 01:01:43;;;;;;;;;24.50;17.00;;;;;12.09;66.42;101029.84;5063687;28;45403;-78
2022/05/04 01:04:08;;;;;;;;;22.75;15.75;;;;;12.12;66.42;101027.13;5062591;28;45397;-78
2022/05/04 01:06:34;;;;;;;;;15.00;13.00;;;;;12.17;66.30;101027.91;5070591;27;45568;-78
2022/05/04 01:08:59;;;;;;;;;18.50;15.50;;;;;12.10;66.55;101021.00;5064534;27;45440;-78
2022/05/04 01:11:25;;;;;;;;;26.75;20.00;;;;;12.02;66.30;101028.22;5068902;28;45429;-79
2022/05/04 01:14:00;;;;;;;;;14.00;14.00;;;;;11.97;66.67;101025.66;5054522;28;45646;-78
2022/05/04 01:16:27;;;;;;;;;12.25;12.00;;;;;11.88;67.02;101021.34;5061876;28;47110;-79
2022/05/04 01:18:52;;;;;;;;;27.00;18.75;;;;;11.91;66.98;101018.66;5074552;27;45354;-77
2022/05/04 01:21:17;;;;;;;;;19.00;15.50;;;;;11.91;67.02;101031.88;5057431;27;45520;-78
2022/05/04 01:23:43;;;;;;;;;24.75;19.75;;;;;11.91;66.84;101029.25;5060327;28;45409;-79
2022/05/04 01:26:09;;;;;;;;;20.00;17.75;;;;;11.87;66.88;101021.38;5066137;28;45488;-78
2022/05/04 01:28:34;;;;;;;;;24.25;21.25;;;;;11.85;67.12;101023.19;5074109;27;45522;-79
2022/05/04 01:30:59;;;;;;;;;16.50;15.75;;;;;11.83;67.35;101022.38;5073469;27;45579;-78
2022/05/04 01:33:26;;;;;;;;;20.50;16.00;;;;;11.83;67.20;101028.53;5063388;28;45552;-78
2022/05/04 01:35:51;;;;;;;;;25.50;19.75;;;;;11.79;67.21;101032.13;5069765;27;45341;-78
2022/05/04 01:38:17;;;;;;;;;28.25;23.75;;;;;11.70;67.76;101025.19;5073549;27;45615;-78
2022/05/04 01:40:42;;;;;;;;;17.75;15.25;;;;;11.69;67.68;101025.22;5073793;27;45317;-78
2022/05/04 01:43:08;;;;;;;;;25.00;22.25;;;;;11.66;67.56;101031.47;5069524;27;45440;-79
2022/05/04 01:45:33;;;;;;;;;24.00;17.00;;;;;11.64;67.74;101037.69;5074082;28;45510;-78
2022/05/04 01:47:58;;;;;;;;;22.25;17.00;;;;;11.61;67.84;101027.16;5058829;27;45529;-78
2022/05/04 01:50:24;;;;;;;;;25.25;25.25;;;;;11.59;67.58;101023.66;5071403;28;45393;-78
2022/05/04 01:52:49;;;;;;;;;18.25;17.00;;;;;11.59;67.79;101023.66;5065825;27;45448;-81
2022/05/04 01:55:15;;;;;;;;;27.75;22.75;;;;;11.58;67.85;101033.34;5066451;27;45450;-82
2022/05/04 01:57:40;;;;;;;;;24.75;18.25;;;;;11.63;67.84;101028.88;5066784;28;45490;-82
2022/05/04 02:00:07;;;;;;;;;20.75;16.00;;;;;11.60;68.04;101020.09;5076243;27;45275;-82
2022/05/04 02:02:33;;;;;;;;;18.25;18.25;;;;;11.59;68.15;101026.31;5065988;28;45568;-79
2022/05/04 02:04:59;;;;;;;;;13.25;12.25;;;;;11.58;68.29;101032.50;5059934;27;45398;-78
2022/05/04 02:07:25;;;;;;;;;34.00;22.75;;;;;11.61;67.97;101037.75;5066631;28;45378;-78
2022/05/04 02:09:50;;;;;;;;;18.75;18.75;;;;;11.62;68.21;101028.91;5056995;28;45698;-79
2022/05/04 02:12:16;;;;;;;;;33.00;20.50;;;;;11.67;67.50;101037.63;5071928;27;45531;-78
2022/05/04 02:14:41;;;;;;;;;28.25;26.00;;;;;11.65;67.92;101023.56;5070501;27;46268;-78
2022/05/04 02:17:07;;;;;;;;;21.25;17.50;;;;;11.65;67.87;101024.41;5060830;28;45386;-78
2022/05/04 02:19:32;;;;;;;;;27.75;25.25;;;;;11.70;67.92;101029.63;5074893;27;45332;-78
2022/05/04 02:21:57;;;;;;;;;22.00;14.50;;;;;11.73;67.98;101035.75;5073067;28;45390;-79
2022/05/04 02:24:23;;;;;;;;;21.00;17.50;;;;;11.76;67.76;101026.88;5069575;27;45440;-78
2022/05/04 02:26:48;;;;;;;;;19.00;15.25;;;;;11.80;67.58;101028.56;5061639;28;45775;-77
2022/05/04 02:29:14;;;;;;;;;21.75;16.50;;;;;11.77;67.40;101018.03;5061787;28;45401;-78
2022/05/04 02:31:39;;;;;;;;;20.00;12.50;;;;;11.76;67.56;101010.13;5064765;28;45539;-78
2022/05/04 02:34:04;;;;;;;;;19.75;16.50;;;;;11.78;67.33;101016.25;5061256;28;45475;-77
2022/05/04 02:39:14;;;;;;;;;14.50;10.00;;;;;11.80;67.44;101027.72;5068063;28;45427;-77
2022/05/04 02:41:39;;;;;;;;;24.50;19.75;;;;;11.78;67.12;101030.38;5053579;28;45438;-78
2022/05/04 02:44:04;;;;;;;;;20.50;14.75;;;;;11.76;67.38;101018.94;5053142;28;49290;-79
2022/05/04 02:46:30;;;;;;;;;24.00;20.00;;;;;11.78;67.39;101026.84;5062526;28;45385;-78
2022/05/04 02:48:56;;;;;;;;;21.75;17.00;;;;;11.77;66.78;101023.34;5053259;28;45584;-78
2022/05/04 02:51:22;;;;;;;;;24.00;18.50;;;;;11.78;67.15;101019.81;5062921;28;45403;-77
2022/05/04 02:53:47;;;;;;;;;26.50;21.75;;;;;11.74;67.09;101024.25;5058048;28;46129;-78
2022/05/04 02:56:16;;;;;;;;;23.25;16.50;;;;;11.69;67.19;101004.94;5064407;28;45415;-79
2022/05/04 02:58:42;;;;;;;;;24.00;18.00;;;;;11.65;67.60;101005.03;5057120;28;45488;-77
2022/05/04 03:04:08;;;;;;;;;27.00;23.50;;;;;11.59;67.59;101006.00;5056637;28;45532;-78
2022/05/04 03:06:37;;;;;;;;;15.25;13.50;;;;;11.64;67.38;101011.22;5064491;28;45430;-78
2022/05/04 03:09:03;;;;;;;;;29.00;22.25;;;;;11.64;67.15;101011.22;5056282;28;45353;-79
2022/05/04 03:14:13;;;;;;;;;37.25;29.50;;;;;11.57;67.61;100999.88;5064945;28;45709;-79
2022/05/04 03:16:39;;;;;;;;;32.75;30.25;;;;;11.51;67.56;100995.53;5064938;28;45699;-77
2022/05/04 03:19:06;;;;;;;;;44.00;36.25;;;;;11.55;67.05;101002.53;5067634;28;45477;-78
2022/05/04 03:21:32;;;;;;;;;43.00;37.00;;;;;11.53;67.46;101006.97;5061878;27;45425;-78
2022/05/04 03:23:58;;;;;;;;;48.50;39.50;;;;;11.43;67.92;101010.66;5060732;28;45465;-78
2022/05/04 03:26:24;;;;;;;;;55.00;46.50;;;;;11.40;68.08;100994.84;5060179;28;45378;-78
2022/05/04 03:28:52;;;;;;;;;72.50;49.00;;;;;11.40;67.80;100997.47;5070161;27;45393;-78
2022/05/04 03:31:18;;;;;;;;;64.75;51.25;;;;;11.37;67.82;100994.88;5062625;28;45421;-78
2022/05/04 03:33:44;;;;;;;;;81.00;57.00;;;;;11.41;67.17;100988.66;5056516;28;45357;-79
2022/05/04 03:36:09;;;;;;;;;74.75;57.75;;;;;11.33;67.45;100986.13;5056255;28;45411;-78
2022/05/04 03:38:35;;;;;;;;;72.00;53.75;;;;;11.41;67.50;100993.94;5056571;28;45514;-78
2022/05/04 03:41:00;;;;;;;;;68.50;51.75;;;;;11.39;67.62;100990.47;5056549;28;45458;-78
2022/05/04 03:43:26;;;;;;;;;29.50;18.25;;;;;11.34;67.84;100987.91;5061589;28;45530;-77
2022/05/04 03:45:52;;;;;;;;;46.00;39.25;;;;;11.38;67.56;100994.84;5069095;28;45468;-78
2022/05/04 03:48:17;;;;;;;;;61.25;49.00;;;;;11.36;67.86;100982.56;5062443;28;45317;-78
2022/05/04 03:50:45;;;;;;;;;44.75;33.75;;;;;11.32;67.44;100984.38;5074163;27;45542;-77
2022/05/04 03:53:10;;;;;;;;;41.50;30.00;;;;;11.31;67.68;100995.88;5067745;27;45438;-79
2022/05/04 03:55:36;;;;;;;;;27.75;23.00;;;;;11.28;67.95;100998.59;5072770;27;45438;-78
2022/05/04 03:58:01;;;;;;;;;23.25;22.00;;;;;11.26;67.79;100997.72;5074817;27;45683;-78
2022/05/04 04:00:26;;;;;;;;;33.75;25.00;;;;;11.25;67.54;100992.44;5060176;28;45450;-78
2022/05/04 04:02:52;;;;;;;;;17.50;15.50;;;;;11.22;67.82;100992.50;5075841;27;45979;-78
2022/05/04 04:05:17;;;;;;;;;21.00;18.75;;;;;11.22;67.71;100989.84;5076473;27;45324;-78
2022/05/04 04:07:43;;;;;;;;;26.50;21.75;;;;;11.13;67.96;100989.09;5065225;28;45529;-78
2022/05/04 04:10:09;;;;;;;;;21.00;18.00;;;;;11.10;67.98;100989.16;5066343;28;45583;-79
2022/05/04 04:12:34;;;;;;;;;19.50;13.50;;;;;11.11;67.60;100985.59;5055128;28;45429;-78
2022/05/04 04:14:59;;;;;;;;;26.50;20.25;;;;;11.07;68.18;100988.31;5055810;28;45544;-78
2022/05/04 04:17:25;;;;;;;;;24.75;21.75;;;;;10.97;68.29;100991.09;5070650;28;45477;-78
2022/05/04 04:21:50;;;;;;;;;12.00;9.50;;;;;10.91;68.43;100985.03;5059198;27;45373;-78
2022/05/04 04:22:35;;;;;;;;;30.75;21.50;;;;;10.89;68.40;100995.66;5075568;28;45749;-77
2022/05/04 04:25:02;;;;;;;;;24.25;18.25;;;;;10.79;68.89;100986.94;5069523;28;45502;-77
2022/05/04 04:27:29;;;;;;;;;22.00;10.25;;;;;10.67;69.30;100992.41;5067280;28;45577;-78
2022/05/04 04:29:54;;;;;;;;;12.25;9.25;;;;;10.71;69.28;101007.34;5067485;28;45635;-77
2022/05/04 04:32:20;;;;;;;;;26.75;21.00;;;;;10.65;69.62;100997.72;5070868;28;45444;-79
2022/05/04 04:34:45;;;;;;;;;28.00;24.25;;;;;10.65;69.85;101005.66;5067167;28;45525;-78
2022/05/04 04:37:11;;;;;;;;;28.50;18.50;;;;;10.69;69.79;101003.88;5062711;27;45556;-81
2022/05/04 04:39:36;;;;;;;;;29.00;19.00;;;;;10.66;69.89;100998.63;5057494;28;45304;-81
2022/05/04 04:42:02;;;;;;;;;26.50;23.00;;;;;10.68;69.99;101004.75;5074947;28;45277;-82
2022/05/04 04:44:27;;;;;;;;;14.00;14.00;;;;;10.66;70.12;100998.63;5062937;27;45383;-82
2022/05/04 04:46:54;;;;;;;;;25.00;16.75;;;;;10.68;69.58;101002.09;5047684;28;45375;-82
2022/05/04 04:49:19;;;;;;;;;21.00;18.25;;;;;10.68;69.98;101006.53;5056868;28;45409;-82
2022/05/04 04:51:45;;;;;;;;;23.50;15.00;;;;;10.70;70.02;101008.22;5055947;28;45485;-82
2022/05/04 04:54:10;;;;;;;;;32.25;20.75;;;;;10.75;70.15;101011.72;5062385;27;45367;-83
2022/05/04 04:56:35;;;;;;;;;26.25;19.25;;;;;10.71;69.77;100990.63;5065202;28;45319;-82
2022/05/04 04:59:01;;;;;;;;;26.00;23.00;;;;;10.82;69.60;101016.00;5073494;28;45598;-82
2022/05/04 05:01:26;;;;;;;;;24.25;21.00;;;;;10.70;69.70;100991.50;5062411;27;47860;-82
2022/05/04 05:03:51;;;;;;;;;20.25;17.50;;;;;10.81;69.52;101008.97;5063484;28;45490;-82
2022/05/04 05:06:19;;;;;;;;;18.00;13.00;;;;;10.86;69.31;101008.91;5073670;27;45630;-83
2022/05/04 05:08:44;;;;;;;;;29.00;23.50;;;;;10.90;69.30;101012.38;5070852;27;45349;-82
2022/05/04 05:11:10;;;;;;;;;26.00;15.50;;;;;10.92;69.34;101000.03;5073872;28;48198;-81
2022/05/04 05:16:06;;;;;;;;;24.00;17.75;;;;;10.96;68.91;101004.34;5064445;27;45369;-82
2022/05/04 05:16:21;;;;;;;;;26.25;20.75;;;;;10.98;69.01;101021.09;5075552;28;45452;-83
2022/05/04 05:18:46;;;;;;;;;18.75;18.00;;;;;11.03;68.79;101019.25;5062891;27;45529;-82
2022/05/04 05:21:12;;;;;;;;;26.50;24.50;;;;;11.12;68.56;101029.69;5069186;28;45547;-81
2022/05/04 05:23:37;;;;;;;;;26.50;26.50;;;;;11.22;68.42;101022.50;5079736;27;45454;-82
2022/05/04 05:26:02;;;;;;;;;28.00;25.00;;;;;11.11;68.29;100990.03;5071098;27;45632;-82
2022/05/04 05:28:28;;;;;;;;;21.75;20.00;;;;;11.41;68.00;101020.41;5066757;27;45329;-83
2022/05/04 05:30:53;;;;;;;;;25.00;23.00;;;;;11.49;67.36;101017.63;5055255;28;46286;-83
2022/05/04 05:33:19;;;;;;;;;28.00;23.00;;;;;11.56;67.43;101021.94;5059290;28;45554;-82
2022/05/04 05:35:44;;;;;;;;;26.00;24.00;;;;;11.89;66.17;101036.34;5064146;28;45460;-81
2022/05/04 05:38:10;;;;;;;;;35.00;26.75;;;;;11.89;65.73;101017.81;5065597;28;45316;-83
2022/05/04 05:40:36;;;;;;;;;27.50;21.25;;;;;12.14;64.79;101022.69;5066009;28;46305;-80
2022/05/04 05:43:01;;;;;;;;;31.00;18.75;;;;;12.14;64.74;101027.09;5066613;27;45507;-82
2022/05/04 05:45:26;;;;;;;;;24.75;22.00;;;;;12.13;64.42;101025.34;5069416;28;45493;-83
2022/05/04 05:47:52;;;;;;;;;15.50;9.50;;;;;12.13;64.52;101026.25;5063966;27;45569;-84
2022/05/04 05:50:18;;;;;;;;;29.50;24.75;;;;;12.01;64.27;101015.84;5056505;28;45585;-80
2022/05/04 05:52:43;;;;;;;;;22.50;20.50;;;;;12.21;64.17;101024.31;5070076;27;45708;-82
2022/05/04 05:55:09;;;;;;;;;22.00;19.50;;;;;12.23;63.79;101037.53;5071373;28;45525;-82
2022/05/04 05:57:34;;;;;;;;;18.50;18.00;;;;;12.26;63.51;101040.13;5068786;27;45273;-83
2022/05/04 06:00:00;;;;;;;;;26.00;19.75;;;;;12.25;63.49;101031.31;5064904;28;45735;-82
2022/05/04 06:02:29;;;;;;;;;31.50;25.50;;;;;12.32;63.72;101033.84;5055006;28;45532;-82
2022/05/04 06:04:55;;;;;;;;;25.00;18.00;;;;;12.33;63.45;101038.22;5064077;28;45517;-82
2022/05/04 06:07:20;;;;;;;;;29.00;20.75;;;;;12.40;63.26;101040.72;5075555;27;45433;-82
2022/05/04 06:09:45;;;;;;;;;13.25;9.75;;;;;12.45;63.02;101043.28;5055028;27;46229;-83
2022/05/04 06:12:11;;;;;;;;;28.00;24.00;;;;;12.27;63.01;101029.50;5055959;27;45544;-83
2022/05/04 06:14:37;;;;;;;;;30.25;26.75;;;;;12.19;63.50;101031.44;5057926;28;45514;-83
2022/05/04 06:17:02;;;;;;;;;26.25;18.25;;;;;11.98;63.33;101021.22;5061918;27;45413;-82
2022/05/04 06:19:28;;;;;;;;;13.75;12.50;;;;;12.00;63.61;101043.28;5065780;27;45469;-80
2022/05/04 06:21:53;;;;;;;;;25.75;23.00;;;;;11.98;63.94;101031.81;5072073;28;45400;-82
2022/05/04 06:24:18;;;;;;;;;31.50;27.75;;;;;12.13;63.61;101063.34;5066995;27;45354;-82
2022/05/04 06:26:44;;;;;;;;;29.25;24.75;;;;;12.14;63.35;101062.41;5057811;28;45407;-78
2022/05/04 06:29:10;;;;;;;;;21.75;18.25;;;;;12.05;63.48;101038.75;5055036;28;45378;-79
2022/05/04 06:34:19;;;;;;;;;25.75;22.00;;;;;12.00;63.57;101035.31;5066233;28;45345;-79
2022/05/04 06:36:46;;;;;;;;;24.75;24.00;;;;;12.14;63.54;101059.78;5077376;27;45594;-82
2022/05/04 06:39:11;;;;;;;;;22.75;20.25;;;;;12.14;63.55;101059.78;5077978;28;46148;-79
2022/05/04 06:41:38;;;;;;;;;25.75;16.00;;;;;12.15;63.66;101055.38;5066828;28;45421;-78
2022/05/04 06:44:04;;;;;;;;;22.50;17.00;;;;;12.13;63.32;101059.81;5073127;28;45540;-77
2022/05/04 06:46:31;;;;;;;;;26.00;19.50;;;;;12.18;63.41;101045.56;5080863;27;45564;-78
2022/05/04 06:48:56;;;;;;;;;17.25;16.00;;;;;12.31;63.18;101055.94;5078824;28;47335;-79
2022/05/04 06:51:21;;;;;;;;;21.75;17.00;;;;;12.37;62.76;101061.09;5068134;28;45508;-77
2022/05/04 06:53:47;;;;;;;;;32.50;21.25;;;;;12.53;62.85;101065.19;5067899;27;45492;-82
2022/05/04 06:56:13;;;;;;;;;26.75;21.50;;;;;12.64;62.07;101061.47;5068036;28;45608;-83
2022/05/04 06:58:38;;;;;;;;;28.50;25.50;;;;;12.84;61.49;101061.91;5061665;28;45663;-78
2022/05/04 07:01:07;;;;;;;;;24.00;20.75;;;;;13.01;61.30;101052.69;5064840;28;45558;-76
2022/05/04 07:03:33;;;;;;;;;15.75;10.75;;;;;13.10;60.51;101052.47;5067908;27;45620;-82
2022/05/04 07:05:58;;;;;;;;;32.50;27.25;;;;;13.16;60.35;101052.34;5081996;27;45638;-82
2022/05/04 07:08:24;;;;;;;;;33.00;22.00;;;;;13.39;60.26;101051.84;5061916;28;45586;-78
2022/05/04 07:10:51;;;;;;;;;26.75;18.75;;;;;13.49;59.40;101056.00;5070002;28;45541;-78
2022/05/04 07:13:17;;;;;;;;;31.25;27.75;;;;;13.64;59.22;101057.41;5078976;28;45579;-78
2022/05/04 07:15:43;;;;;;;;;25.75;21.00;;;;;13.75;58.46;101066.91;5063782;28;45482;-77
2022/05/04 07:18:08;;;;;;;;;27.50;25.00;;;;;13.80;58.78;101065.00;5066860;28;45590;-78
2022/05/04 07:20:34;;;;;;;;;29.50;22.50;;;;;13.86;58.28;101070.16;5074457;27;45429;-79
2022/05/04 07:22:59;;;;;;;;;30.25;25.75;;;;;13.95;58.74;101074.34;5079190;28;45361;-79
2022/05/04 07:25:25;;;;;;;;;23.25;20.00;;;;;14.03;58.36;101073.25;5069099;28;45728;-79
2022/05/04 07:27:50;;;;;;;;;30.75;23.25;;;;;14.03;58.26;101067.94;5068010;28;45267;-79
2022/05/04 07:30:16;;;;;;;;;34.50;28.00;;;;;14.10;57.98;101071.28;5059838;28;45266;-79
2022/05/04 07:32:41;;;;;;;;;31.00;23.50;;;;;14.23;57.78;101074.50;5065413;27;45398;-79
2022/05/04 07:35:08;;;;;;;;;30.50;25.50;;;;;14.42;57.60;101074.84;5064874;28;45373;-78
2022/05/04 07:37:34;;;;;;;;;31.50;25.50;;;;;14.72;56.57;101078.44;5077633;28;45485;-79
2022/05/04 07:42:44;;;;;;;;;27.75;24.50;;;;;16.57;52.72;101076.84;5075336;28;45469;-79
2022/05/04 07:45:12;;;;;;;;;21.00;18.50;;;;;16.64;51.28;101085.47;5068494;28;45390;-79
2022/05/04 07:47:39;;;;;;;;;34.50;27.50;;;;;16.60;51.47;101089.22;5060755;28;46046;-79
2022/05/04 07:50:07;;;;;;;;;29.25;19.75;;;;;16.66;51.04;101083.66;5071502;28;45532;-79
2022/05/04 07:52:33;;;;;;;;;36.50;29.50;;;;;16.52;51.05;101084.16;5069130;28;45388;-78
2022/05/04 07:54:59;;;;;;;;;33.25;26.25;;;;;16.66;51.09;101086.31;5060298;28;45465;-78
2022/05/04 07:57:24;;;;;;;;;25.50;21.75;;;;;16.91;50.42;101080.06;5064225;28;46125;-79
2022/05/04 08:05:22;;;;;;;;;25.50;22.25;;;;;17.84;48.54;101082.56;5055976;28;45541;-79
2022/05/04 08:07:47;;;;;;;;;40.75;35.25;;;;;17.97;47.74;101077.59;5056830;28;46106;-78
2022/05/04 08:10:13;;;;;;;;;34.50;28.50;;;;;17.91;48.00;101082.25;5059290;28;45481;-78
2022/05/04 08:12:38;;;;;;;;;104.75;88.75;;;;;17.78;47.28;101075.69;5071945;28;45404;-79
2022/05/04 08:15:04;;;;;;;;;27.50;22.00;;;;;17.77;48.55;101076.63;5074899;27;45489;-78
2022/05/04 08:17:30;;;;;;;;;39.75;28.50;;;;;17.76;47.60;101062.41;5066465;27;45392;-78
2022/05/04 08:19:55;;;;;;;;;32.00;30.00;;;;;17.87;47.23;101082.44;5061851;28;45427;-79
2022/05/04 08:22:20;;;;;;;;;53.75;48.25;;;;;17.90;47.78;101080.53;5068876;28;45463;-82
2022/05/04 08:24:46;;;;;;;;;41.25;31.50;;;;;18.08;47.31;101080.69;5068967;27;45449;-83
2022/05/04 08:27:11;;;;;;;;;27.50;21.25;;;;;18.27;47.01;101081.63;5072320;27;45310;-82
2022/05/04 08:29:37;;;;;;;;;35.50;29.25;;;;;18.27;46.44;101078.94;5069979;28;45638;-82
2022/05/04 08:32:03;;;;;;;;;30.25;26.75;;;;;18.39;46.75;101090.06;5068192;27;45353;-81
2022/05/04 08:34:28;;;;;;;;;40.50;32.25;;;;;18.76;46.08;101078.50;5068832;27;45300;-81
2022/05/04 08:36:53;;;;;;;;;30.75;29.75;;;;;19.35;44.93;101076.66;5073785;28;46422;-82
2022/05/04 08:39:19;;;;;;;;;31.50;25.50;;;;;19.17;44.40;101066.81;5071277;28;45547;-78
2022/05/04 08:41:44;;;;;;;;;33.75;30.75;;;;;19.22;44.46;101078.22;5054885;28;45649;-79
2022/05/04 08:44:11;;;;;;;;;30.25;25.50;;;;;19.08;44.74;101078.00;5057549;28;45516;-78
2022/05/04 08:46:42;;;;;;;;;27.25;23.50;;;;;19.22;44.93;101075.53;5073030;28;46983;-79
2022/05/04 08:49:11;;;;;;;;;32.75;24.00;;;;;19.93;43.69;101072.03;5062178;28;45522;-79
2022/05/04 08:51:37;;;;;;;;;38.00;33.25;;;;;19.99;42.96;101071.69;5054939;28;45484;-79
2022/05/04 08:54:07;;;;;;;;;108.25;93.00;;;;;20.67;42.53;101068.16;5067085;28;45389;-82
2022/05/04 08:56:35;;;;;;;;;23.75;19.50;;;;;20.93;41.52;101073.91;5058796;28;47173;-82
2022/05/04 08:59:02;;;;;;;;;56.00;45.00;;;;;21.55;40.75;101075.84;5062417;28;45406;-82
2022/05/04 09:01:28;;;;;;;;;33.75;26.75;;;;;22.39;38.94;101082.53;5080219;28;45482;-82
2022/05/04 09:03:53;;;;;;;;;27.00;19.75;;;;;22.35;38.06;101073.78;5056018;28;45432;-82
2022/05/04 09:06:26;;;;;;;;;29.00;26.00;;;;;22.18;38.85;101064.00;5068454;28;45445;-82
2022/05/04 09:08:57;;;;;;;;;114.00;103.50;;;;;22.70;37.86;101068.03;5060267;27;45501;-82
2022/05/04 09:11:23;;;;;;;;;112.67;102.33;;;;;23.33;36.27;101076.59;5066282;28;45273;-82
2022/05/04 09:13:49;;;;;;;;;106.67;88.00;;;;;23.30;35.69;101072.25;5073082;28;45474;-82
2022/05/04 09:16:32;;;;;;;;;112.00;98.60;;;;;23.46;35.79;101073.94;5068312;27;47058;-83
2022/05/04 09:19:20;;;;;;;;;111.25;101.00;;;;;23.56;35.99;101081.34;5068115;28;45492;-83
2022/05/04 09:21:47;;;;;;;;;112.00;103.00;;;;;23.86;35.81;101080.25;5062362;28;45531;-82
2022/05/04 09:24:25;;;;;;;;;110.25;100.75;;;;;24.12;34.64;101074.91;5085365;27;45583;-82
2022/05/04 09:26:53;;;;;;;;;103.75;85.75;;;;;24.00;34.26;101075.75;5068661;28;47305;-82
2022/05/04 09:29:20;;;;;;;;;105.75;94.50;;;;;23.82;34.95;101075.13;5057303;28;45349;-80
2022/05/04 09:31:47;;;;;;;;;47.50;40.25;;;;;23.71;35.11;101079.41;5061150;28;45526;-79
2022/05/04 09:34:13;;;;;;;;;18.75;17.25;;;;;23.26;35.06;101077.94;5064367;28;45606;-78
2022/05/04 09:45:11;;;;;;;;;68.50;57.75;;;;;22.64;36.96;101052.25;5053751;28;45477;-79
2022/05/04 09:47:38;;;;;;;;;88.33;72.00;;;;;22.51;36.18;101053.00;5056574;28;46181;-77
2022/05/04 09:50:04;;;;;;;;;81.00;66.67;;;;;22.38;36.34;101054.75;5060678;28;45507;-76
2022/05/04 09:52:46;;;;;;;;;78.67;66.67;;;;;22.23;36.65;101061.03;5054790;28;45412;-77
2022/05/04 09:55:14;;;;;;;;;80.25;64.50;;;;;22.47;36.33;101064.06;5073923;28;45487;-78
2022/05/04 09:57:42;;;;;;;;;67.33;57.00;;;;;23.27;35.72;101053.59;5072044;28;46051;-77
2022/05/04 10:00:08;;;;;;;;;18.50;15.00;;;;;23.82;34.22;101054.41;5072304;28;45353;-78
2022/05/04 10:02:33;;;;;;;;;72.25;61.25;;;;;24.33;33.53;101058.19;5058849;27;45504;-84
2022/05/04 10:05:00;;;;;;;;;109.67;101.00;;;;;24.92;33.41;101047.63;5069815;28;45836;-84
2022/05/04 10:07:26;;;;;;;;;109.50;100.50;;;;;25.17;32.46;101051.22;5062591;27;45536;-84
2022/05/04 10:09:52;;;;;;;;;113.00;102.33;;;;;24.99;32.43;101032.72;5058801;28;45570;-78
2022/05/04 10:12:19;;;;;;;;;112.33;105.00;;;;;24.70;32.82;101039.38;5062161;28;45555;-79
2022/05/04 10:14:45;;;;;;;;;113.20;104.00;;;;;24.41;32.65;101036.88;5061706;28;45605;-79
2022/05/04 10:17:20;;;;;;;;;107.50;95.25;;;;;24.51;33.50;101054.16;5057938;28;46296;-82
2022/05/04 10:19:48;;;;;;;;;71.33;59.67;;;;;24.59;33.23;101042.84;5068076;28;45310;-85
2022/05/04 10:22:21;;;;;;;;;94.67;76.33;;;;;24.72;32.91;101042.81;5078694;27;45252;-82
2022/05/04 10:24:46;;;;;;;;;97.67;78.67;;;;;25.09;31.74;101042.84;5063770;27;45572;-83
2022/05/04 10:27:17;;;;;;;;;95.00;78.00;;;;;25.18;31.57;101045.72;5058265;28;45468;-83
2022/05/04 10:32:37;;;;;;;;;100.00;83.00;;;;;25.47;30.66;101049.97;5060895;28;45460;-82
2022/05/04 10:35:31;;;;;;;;;70.00;58.00;;;;;25.33;30.80;101059.97;5072842;28;45518;-83
2022/05/04 10:37:57;;;;;;;;;89.33;72.67;;;;;25.79;30.63;101055.59;5058800;28;45348;-82
2022/05/04 10:40:33;;;;;;;;;97.67;77.33;;;;;26.19;30.48;101057.09;5063035;28;45764;-85
2022/05/04 10:43:03;;;;;;;;;18.50;14.50;;;;;26.45;30.07;101062.28;5084033;27;45321;-85
2022/05/04 10:45:30;;;;;;;;;24.00;22.75;;;;;26.26;30.31;101066.47;5080561;27;45346;-84
2022/05/04 10:48:13;;;;;;;;;56.25;46.50;;;;;26.72;29.30;101060.13;5080442;28;46434;-83
2022/05/04 10:50:51;;;;;;;;;107.25;96.50;;;;;27.07;28.55;101059.09;5069952;28;45355;-84
2022/05/04 10:53:25;;;;;;;;;104.75;96.00;;;;;27.21;28.03;101054.38;5068226;27;45483;-83
2022/05/04 10:56:05;;;;;;;;;94.00;80.00;;;;;26.94;29.36;101055.69;5078164;27;45481;-85
2022/05/04 10:58:37;;;;;;;;;97.00;76.75;;;;;27.15;28.60;101061.19;5077829;27;46192;-83
2022/05/04 11:01:12;;;;;;;;;45.50;42.00;;;;;27.12;28.49;101066.88;5067610;27;45465;-80
2022/05/04 11:03:57;;;;;;;;;41.67;36.00;;;;;27.62;28.35;101061.81;5066779;28;45338;-80
2022/05/04 11:06:30;;;;;;;;;78.33;65.67;;;;;27.88;27.60;101055.13;5062502;28;45314;-80
2022/05/04 11:08:59;;;;;;;;;65.67;55.00;;;;;27.83;27.57;101045.53;5064554;27;45480;-78
2022/05/04 11:11:26;;;;;;;;;21.75;20.75;;;;;27.99;26.11;101052.38;5064495;27;45618;-78
2022/05/04 11:13:52;;;;;;;;;18.25;15.50;;;;;27.61;27.17;101034.78;5065105;28;45685;-78
2022/05/04 11:16:20;;;;;;;;;24.50;20.50;;;;;27.35;27.74;101047.84;5072433;28;45592;-80
2022/05/04 11:18:45;;;;;;;;;16.50;14.75;;;;;26.87;28.04;101051.72;5056061;28;47858;-79
2022/05/04 11:21:12;;;;;;;;;13.00;12.00;;;;;26.56;28.59;101046.06;5065601;27;45422;-81
2022/05/04 11:23:38;;;;;;;;;13.25;6.00;;;;;26.38;28.99;101030.28;5066273;27;45362;-78
2022/05/04 11:26:05;;;;;;;;;17.50;13.25;;;;;26.24;29.52;101046.78;5072597;27;45547;-79
2022/05/04 11:28:30;;;;;;;;;17.25;17.25;;;;;25.79;29.31;101041.22;5074099;27;45725;-78
2022/05/04 11:30:56;;;;;;;;;13.50;12.25;;;;;25.15;29.67;101039.69;5056894;28;45567;-79
2022/05/04 11:33:21;;;;;;;;;13.00;10.00;;;;;24.78;29.91;101048.66;5064388;28;45389;-79
2022/05/04 11:35:54;;;;;;;;;16.75;15.25;;;;;24.64;30.61;101051.47;5056868;28;45787;-79
2022/05/04 11:38:21;;;;;;;;;15.25;14.00;;;;;24.53;30.69;101044.09;5063537;28;45507;-79